Bayside, NY (11359)

11:28 AM EDT on August 31, 2015 (GMT -0400)
Oakland Gardens | | Change Station
CLOSE
Current Station
Personal Weather Station
Location: New York, NY
Elevation: 95 ft
Nearby Weather Stations

Elev 95 ft 40.75 °N, 73.75 °W | Updated 2 minutes ago

Overcast
Overcast
83.7 °F
Feels Like 90 °F
N
0.0
Wind Variable Wind from South
Gusts 1.0 mph

Today
High -- | Low -- °F
--% Chance of Precip.
Yesterday
High -- | Low -- °F
Precip. -- in
6:20 AM 7:29 PM
Waning Gibbous, 95% visible
Pressure 30.03 in
Visibility 10.0 miles
Clouds Scattered Clouds 11000 ft
Mostly Cloudy 14000 ft
Overcast 25000 ft
Heat Index 90 °F
Dew Point 73 °F
Humidity 71%
Rainfall 0.00 in
Snow Depth Not available.
UV 2 out of 12
Pollen 10.60 out of 12
Air Quality Not available.
Flu Activity Not available.
METAR KLGA 311451Z 31006KT 10SM SCT110 BKN140 OVC250 28/19 A3003 RMK AO2 SLP168 T02780194 50000
Pressure 30.03 in
Visibility 10.0 miles
Clouds Scattered Clouds 11000 ft
Mostly Cloudy 14000 ft
Overcast 25000 ft
Heat Index 90 °F
Dew Point 73 °F
Humidity 71%
Rainfall 0.00 in
Snow Depth Not available.
UV 2 out of 12
Pollen 10.60 out of 12
Air Quality Not available.
Flu Activity Not available.
METAR KLGA 311451Z 31006KT 10SM SCT110 BKN140 OVC250 28/19 A3003 RMK AO2 SLP168 T02780194 50000

10-Day Weather Forecast

×

Almanac

Astronomy

Aug. 31, 2015 Rise Set
Actual Time
Civil Twilight
Nautical Twilight
Astronomical Twilight
Moon
Length of Visible Light
Length of Day
Tomorrow will be .
, % of the Moon is Illuminated

Today's Extremes

State Highs State Lows

Community

WunderPhotos

Upload Photos

1,851,281 photos uploaded!

WunderBlogs® & News

Nearby

Air Quality

  Air Quality AQ Index Pollutant
Not available.

Snow Depth

Station Depth Elevation

Earthquake Activity

City Distance Mag. Time & Date
Minimum magnitude displayed is 2.5.

Coastal Water Temperatures

Place Temperature

Stations

Nearby Weather Stations

Station Location Temp. Windchill Dew Point Humidity Wind Precip. Elev Updated Type